createdAt,value
2019-06-20T06:37:16.182Z,18.80
2019-06-20T06:40:02.295Z,18.90
2019-06-20T06:42:48.263Z,18.80
2019-06-20T06:45:29.454Z,18.80
2019-06-20T06:48:19.888Z,18.90
2019-06-20T06:51:02.674Z,18.90
2019-06-20T06:53:43.733Z,18.90
2019-06-20T06:56:30.482Z,18.90
2019-06-20T06:59:17.041Z,18.90
2019-06-20T07:02:04.201Z,18.90
2019-06-20T07:04:40.145Z,18.90
2019-06-20T07:07:11.752Z,19.00
2019-06-20T07:09:46.195Z,19.00
2019-06-20T07:12:27.971Z,19.00
2019-06-20T07:15:10.511Z,19.00
2019-06-20T07:17:56.492Z,19.00
2019-06-20T07:20:35.622Z,19.00
2019-06-20T07:23:13.601Z,19.00
2019-06-20T07:26:00.202Z,19.10
2019-06-20T07:28:33.577Z,19.00
2019-06-20T07:31:12.088Z,19.10
2019-06-20T07:33:58.979Z,19.10
2019-06-20T07:36:42.871Z,19.10
2019-06-20T07:39:17.190Z,19.10
2019-06-20T07:42:01.128Z,19.10
2019-06-20T07:44:50.893Z,19.10
2019-06-20T07:47:34.870Z,19.10
2019-06-20T07:50:12.123Z,19.20
2019-06-20T07:53:01.902Z,19.20
2019-06-20T07:55:33.610Z,19.20
2019-06-20T07:58:09.018Z,19.20
2019-06-20T08:00:54.696Z,19.00
2019-06-20T08:03:30.130Z,19.30
2019-06-20T08:06:10.756Z,19.20
2019-06-20T08:08:55.423Z,19.30
2019-06-20T08:11:36.890Z,19.30
2019-06-20T08:14:24.367Z,19.30
2019-06-20T08:17:04.263Z,19.30
2019-06-20T08:20:02.671Z,19.30
2019-06-20T08:22:34.654Z,19.30
2019-06-20T08:25:12.666Z,19.30
2019-06-20T08:27:53.693Z,19.40
2019-06-20T08:30:30.412Z,19.40
2019-06-20T08:33:13.557Z,19.40
2019-06-20T08:36:00.469Z,19.40
2019-06-20T08:38:44.718Z,19.40
2019-06-20T08:41:35.417Z,19.40
2019-06-20T08:44:22.502Z,19.50
2019-06-20T08:47:02.278Z,19.50
2019-06-20T08:49:45.474Z,19.50
2019-06-20T08:52:27.741Z,19.50
2019-06-20T08:55:03.295Z,19.50
2019-06-20T08:57:34.499Z,19.50
2019-06-20T09:00:16.695Z,19.50
2019-06-20T09:02:58.631Z,19.50
2019-06-20T09:05:36.130Z,19.60
2019-06-20T09:08:20.216Z,19.60
2019-06-20T09:10:57.555Z,19.60
2019-06-20T09:13:43.452Z,19.60
2019-06-20T09:16:28.222Z,19.60
2019-06-20T09:19:04.506Z,19.70
2019-06-20T09:21:44.918Z,19.70
2019-06-20T09:24:28.770Z,19.70
2019-06-20T09:27:11.303Z,19.70
2019-06-20T09:29:54.367Z,19.80
2019-06-20T09:32:48.746Z,19.80
2019-06-20T09:35:52.410Z,19.80
2019-06-20T09:38:35.513Z,19.80
2019-06-20T09:41:22.009Z,19.90
2019-06-20T09:44:07.630Z,19.90
2019-06-20T09:46:53.909Z,20.00
2019-06-20T09:49:37.368Z,20.00
2019-06-20T09:52:18.034Z,20.00
2019-06-20T09:54:59.207Z,20.10
2019-06-20T09:57:44.574Z,20.10
2019-06-20T10:00:22.320Z,20.10
2019-06-20T10:03:06.521Z,20.20
2019-06-20T10:05:48.911Z,20.20
2019-06-20T10:08:34.217Z,20.20
2019-06-20T10:11:17.370Z,20.30
2019-06-20T10:14:00.733Z,20.30
2019-06-20T10:16:45.724Z,20.40
2019-06-20T10:19:26.231Z,20.40
2019-06-20T10:22:13.765Z,20.40
2019-06-20T10:25:07.984Z,20.50
2019-06-20T10:27:53.396Z,20.50
2019-06-20T10:30:38.853Z,20.60
2019-06-20T10:33:17.393Z,20.60
2019-06-20T10:35:54.032Z,20.60
2019-06-20T10:38:24.889Z,20.70
2019-06-20T10:40:58.628Z,20.90
2019-06-20T10:43:39.336Z,20.80
2019-06-20T10:46:29.188Z,20.80
2019-06-20T10:49:06.430Z,20.80
2019-06-20T10:51:47.599Z,20.90
2019-06-20T10:54:22.608Z,20.90
2019-06-20T10:57:04.809Z,21.00
2019-06-20T10:59:51.746Z,21.00
2019-06-20T11:02:36.786Z,21.00
2019-06-20T11:05:23.998Z,21.00
2019-06-20T11:08:11.964Z,21.10
2019-06-20T11:10:56.318Z,21.10
2019-06-20T11:13:42.130Z,21.10
2019-06-20T11:16:30.951Z,21.20
2019-06-20T11:19:15.826Z,21.20
2019-06-20T11:21:56.687Z,21.20
2019-06-20T11:24:43.016Z,21.20
2019-06-20T11:27:29.011Z,21.30
2019-06-20T11:30:18.054Z,21.30
2019-06-20T11:33:00.619Z,21.30
2019-06-20T11:35:51.973Z,21.30
2019-06-20T11:38:39.033Z,21.40
2019-06-20T11:41:20.854Z,21.40
2019-06-20T11:43:58.784Z,21.40
2019-06-20T11:46:42.639Z,21.40
2019-06-20T11:49:20.763Z,21.50
2019-06-20T11:52:03.793Z,21.40
2019-06-20T11:54:48.343Z,21.50
2019-06-20T11:57:28.226Z,21.50
2019-06-20T12:00:16.253Z,21.50
2019-06-20T12:02:59.857Z,21.60
2019-06-20T12:05:41.551Z,21.60
2019-06-20T12:08:24.143Z,21.60
2019-06-20T12:11:04.297Z,21.60
2019-06-20T12:13:44.913Z,21.60
2019-06-20T12:16:42.718Z,21.70
2019-06-20T12:19:27.541Z,21.70
2019-06-20T12:22:13.190Z,21.70
2019-06-20T12:24:49.879Z,21.70
2019-06-20T12:27:29.736Z,21.80
2019-06-20T12:30:06.351Z,21.70
2019-06-20T12:32:53.956Z,21.80
2019-06-20T12:35:32.902Z,21.80
2019-06-20T12:38:18.021Z,21.80
2019-06-20T12:41:05.225Z,21.80
2019-06-20T12:43:50.614Z,21.80
2019-06-20T12:46:31.070Z,21.80
2019-06-20T12:49:13.704Z,21.80
2019-06-20T12:51:49.595Z,21.90
2019-06-20T12:54:31.551Z,21.90
2019-06-20T12:57:07.210Z,21.90
2019-06-20T12:59:50.425Z,21.90
2019-06-20T13:02:23.606Z,21.90
2019-06-20T13:05:06.234Z,21.90
2019-06-20T13:07:46.355Z,22.00
2019-06-20T13:10:19.034Z,21.90
2019-06-20T13:12:58.062Z,22.00
2019-06-20T13:15:33.537Z,22.00
2019-06-20T13:18:08.288Z,22.00
2019-06-20T13:20:50.320Z,22.00
2019-06-20T13:23:26.999Z,22.00
2019-06-20T13:25:56.175Z,22.00
2019-06-20T13:28:54.307Z,22.10
2019-06-20T13:31:06.223Z,22.10
2019-06-20T13:33:42.965Z,22.10
2019-06-20T13:36:16.479Z,22.10
2019-06-20T13:39:00.540Z,22.10
2019-06-20T13:41:48.041Z,22.10
2019-06-20T13:44:21.812Z,22.20
2019-06-20T13:46:55.794Z,22.20
2019-06-20T13:49:33.297Z,22.20
2019-06-20T13:52:15.750Z,22.20
2019-06-20T13:54:58.944Z,22.30
2019-06-20T13:57:41.198Z,22.30
2019-06-20T14:00:20.919Z,22.30
2019-06-20T14:03:10.765Z,22.30
2019-06-20T14:05:49.791Z,22.30
2019-06-20T14:08:31.113Z,22.30
2019-06-20T14:11:11.809Z,22.40
2019-06-20T14:16:34.047Z,22.40
2019-06-20T14:19:10.026Z,22.40
2019-06-20T14:21:58.378Z,22.40
2019-06-20T14:24:38.682Z,22.40
2019-06-20T14:27:22.349Z,22.50
2019-06-20T14:30:00.978Z,22.50
2019-06-20T14:32:43.031Z,22.50
2019-06-20T14:35:20.304Z,22.50
2019-06-20T14:37:52.163Z,22.50
2019-06-20T14:40:32.753Z,22.60
2019-06-20T14:43:21.748Z,22.60
2019-06-20T14:46:09.085Z,22.60
2019-06-20T14:48:54.239Z,22.60
2019-06-20T14:51:30.189Z,22.60
2019-06-20T14:54:19.495Z,22.60
2019-06-20T14:57:02.898Z,22.60
2019-06-20T15:00:01.641Z,22.60
2019-06-20T15:02:51.915Z,22.50
2019-06-20T15:05:34.717Z,22.50
2019-06-20T15:08:16.817Z,22.50
2019-06-20T15:11:01.510Z,22.50
2019-06-20T15:13:43.081Z,22.50
2019-06-20T15:16:25.740Z,22.50
2019-06-20T15:19:05.732Z,22.40
2019-06-20T15:21:48.483Z,22.40
2019-06-20T15:24:31.378Z,22.40
2019-06-20T15:27:03.146Z,22.40
2019-06-20T15:29:32.486Z,22.40
2019-06-20T15:32:09.188Z,22.40
2019-06-20T15:34:40.130Z,22.40
2019-06-20T15:37:27.950Z,22.40
2019-06-20T15:40:09.070Z,22.40
2019-06-20T15:42:42.278Z,22.40
2019-06-20T15:45:19.701Z,22.40
2019-06-20T15:47:59.739Z,22.40
2019-06-20T15:50:36.807Z,22.40
2019-06-20T15:53:06.017Z,22.40
2019-06-20T15:55:41.511Z,22.40
2019-06-20T15:58:14.465Z,22.40
2019-06-20T16:00:42.896Z,22.40
2019-06-20T16:03:15.674Z,22.40
2019-06-20T16:05:52.737Z,22.40
2019-06-20T16:08:32.390Z,22.40
2019-06-20T16:11:09.464Z,22.40
2019-06-20T16:13:50.536Z,22.40
2019-06-20T16:16:32.182Z,22.50
2019-06-20T16:19:09.554Z,22.40
2019-06-20T16:21:48.091Z,22.50
2019-06-20T16:24:26.505Z,22.50
2019-06-20T16:27:04.279Z,22.50
2019-06-20T16:29:42.923Z,22.50
2019-06-20T16:32:20.937Z,22.40
2019-06-20T16:35:06.047Z,22.50
2019-06-20T16:37:45.179Z,22.50
2019-06-20T16:40:28.437Z,22.50
2019-06-20T16:43:01.403Z,22.50
2019-06-20T16:45:38.165Z,22.50
2019-06-20T16:48:21.010Z,22.50
2019-06-20T16:51:07.175Z,22.40
2019-06-20T16:53:40.220Z,22.50
2019-06-20T16:56:21.923Z,22.50
2019-06-20T16:59:08.153Z,22.40
2019-06-20T17:01:52.494Z,22.50
2019-06-20T17:07:13.725Z,22.50
2019-06-20T17:09:57.894Z,22.40
2019-06-20T17:12:44.913Z,22.40
2019-06-20T17:18:16.939Z,22.40
2019-06-20T17:21:01.325Z,22.50
2019-06-20T17:23:43.273Z,22.40
2019-06-20T17:26:26.988Z,22.40
2019-06-20T17:29:09.229Z,22.40
2019-06-20T17:31:57.530Z,22.20
2019-06-20T17:34:37.817Z,22.40
2019-06-20T17:37:20.009Z,22.40
2019-06-20T17:40:04.004Z,22.40
2019-06-20T17:42:50.741Z,22.40
2019-06-20T17:45:25.834Z,22.40
2019-06-20T17:48:07.305Z,22.40
2019-06-20T17:50:50.891Z,22.40
2019-06-20T17:53:28.556Z,22.40
2019-06-20T17:56:05.460Z,22.40
2019-06-20T17:58:44.160Z,22.30
2019-06-20T18:01:23.854Z,22.30
2019-06-20T18:04:14.065Z,22.30
2019-06-20T18:06:44.948Z,22.30
2019-06-20T18:09:22.289Z,22.30
2019-06-20T18:12:03.767Z,22.30
2019-06-20T18:14:50.310Z,22.20
2019-06-20T18:17:39.677Z,22.20
2019-06-20T18:20:20.805Z,22.10
2019-06-20T18:22:57.873Z,22.10
2019-06-20T18:25:42.433Z,22.00
2019-06-20T18:28:14.052Z,22.00
2019-06-20T18:30:45.569Z,22.00
2019-06-20T18:33:28.216Z,21.90
2019-06-20T18:36:19.310Z,21.90
2019-06-20T18:39:02.724Z,21.90
2019-06-20T18:41:51.758Z,21.80
2019-06-20T18:44:23.544Z,21.80
2019-06-20T18:47:01.340Z,21.70
2019-06-20T18:49:47.031Z,21.70
2019-06-20T18:52:29.659Z,21.60
2019-06-20T18:55:12.303Z,21.60
2019-06-20T18:57:54.268Z,21.50
2019-06-20T19:00:41.741Z,21.50
2019-06-20T19:03:24.134Z,21.40
2019-06-20T19:06:16.001Z,21.30
2019-06-20T19:09:06.745Z,21.00
2019-06-20T19:11:51.220Z,21.20
2019-06-20T19:14:33.722Z,21.20
2019-06-20T19:17:22.576Z,21.10
2019-06-20T19:20:12.328Z,21.00
2019-06-20T19:22:53.390Z,21.00
2019-06-20T19:25:31.437Z,20.90
2019-06-20T19:28:11.144Z,20.80
2019-06-20T19:30:45.086Z,20.80
2019-06-20T19:33:31.152Z,20.70
2019-06-20T19:36:10.774Z,20.60
2019-06-20T19:38:59.408Z,20.60
2019-06-20T19:41:34.417Z,20.50
2019-06-20T19:44:17.579Z,20.50
2019-06-20T19:47:05.352Z,20.40
2019-06-20T19:49:56.500Z,20.50
2019-06-20T19:52:44.192Z,20.20
2019-06-20T19:55:30.058Z,20.20
2019-06-20T19:58:06.670Z,20.10
2019-06-20T20:00:47.749Z,20.00
2019-06-20T20:03:31.632Z,20.00
2019-06-20T20:06:12.618Z,19.90
2019-06-20T20:08:58.556Z,19.80
2019-06-20T20:11:43.610Z,19.80
2019-06-20T20:14:27.373Z,19.70
2019-06-20T20:17:15.742Z,19.70
2019-06-20T20:19:59.420Z,19.60
2019-06-20T20:22:44.003Z,19.50
2019-06-20T20:25:22.221Z,19.50
2019-06-20T20:28:05.369Z,19.40
2019-06-20T20:30:53.552Z,19.30
2019-06-20T20:33:42.744Z,19.30
2019-06-20T20:36:35.256Z,19.20
2019-06-20T20:39:22.215Z,19.10
2019-06-20T20:42:06.959Z,19.10
2019-06-20T20:44:55.289Z,19.00
2019-06-20T20:47:41.283Z,18.90
2019-06-20T20:50:24.626Z,18.90
2019-06-20T20:52:53.302Z,18.80
2019-06-20T20:55:30.949Z,18.70
2019-06-20T20:58:13.564Z,18.70
2019-06-20T21:00:55.120Z,18.60
2019-06-20T21:03:42.330Z,18.60
2019-06-20T21:06:31.115Z,18.50
2019-06-20T21:09:11.588Z,18.40
2019-06-20T21:11:57.870Z,18.40
2019-06-20T21:14:44.258Z,18.30
2019-06-20T21:17:29.120Z,18.30
2019-06-20T21:20:06.874Z,18.20
2019-06-20T21:22:56.527Z,18.10
2019-06-20T21:25:35.269Z,18.10
2019-06-20T21:28:16.258Z,18.00
2019-06-20T21:30:53.434Z,18.00
2019-06-20T21:33:39.036Z,17.90
2019-06-20T21:36:26.251Z,17.90
2019-06-20T21:39:11.848Z,17.80
2019-06-20T21:41:48.883Z,17.80
2019-06-20T21:44:35.965Z,17.70
2019-06-20T21:47:14.641Z,17.70
2019-06-20T21:49:59.616Z,17.60
2019-06-20T21:52:40.858Z,17.60
2019-06-20T21:55:32.418Z,17.60
2019-06-20T21:58:08.179Z,17.50
2019-06-20T22:00:45.698Z,17.50
2019-06-20T22:03:24.925Z,17.40
2019-06-20T22:06:22.958Z,17.40
2019-06-20T22:08:55.466Z,17.30
2019-06-20T22:11:32.222Z,17.20
2019-06-20T22:14:07.914Z,17.20
2019-06-20T22:16:48.132Z,17.20
2019-06-20T22:19:31.122Z,17.10
2019-06-20T22:22:15.221Z,17.00
2019-06-20T22:25:09.186Z,17.00
2019-06-20T22:27:45.555Z,16.90
2019-06-20T22:30:27.659Z,16.90
2019-06-20T22:33:15.054Z,16.80
2019-06-20T22:36:05.228Z,16.80
2019-06-20T22:38:53.244Z,16.70
2019-06-20T22:41:42.435Z,16.70
2019-06-20T22:44:28.263Z,16.60
2019-06-20T22:47:12.439Z,16.60
2019-06-20T22:49:52.752Z,16.50
2019-06-20T22:52:34.987Z,16.50
2019-06-20T22:55:19.229Z,16.40
2019-06-20T22:58:04.786Z,16.40
2019-06-20T23:00:47.412Z,16.30
2019-06-20T23:03:41.850Z,16.30
2019-06-20T23:06:16.274Z,16.20
2019-06-20T23:08:59.906Z,16.20
2019-06-20T23:11:48.322Z,16.20
2019-06-20T23:14:33.597Z,16.10
2019-06-20T23:17:29.720Z,16.10
2019-06-20T23:20:10.736Z,16.00
2019-06-20T23:22:43.158Z,16.00
2019-06-20T23:25:13.702Z,15.90
2019-06-20T23:27:46.543Z,15.90
2019-06-20T23:30:20.133Z,15.90
2019-06-20T23:33:04.910Z,15.80
2019-06-20T23:35:45.066Z,15.80
2019-06-20T23:38:31.315Z,15.80
2019-06-20T23:41:19.232Z,15.70
2019-06-20T23:43:59.596Z,15.70
2019-06-20T23:46:43.031Z,15.70
2019-06-20T23:49:21.537Z,15.60
2019-06-20T23:52:08.766Z,15.60
2019-06-20T23:54:53.646Z,15.60
2019-06-20T23:57:26.020Z,15.50
2019-06-20T23:59:56.406Z,15.50
